Terminal Aerodrome Forecast
Issued by NWS Lake Charles, LA

Home | Current Version | Previous Version | Text Only | Print | Product List | Glossary On
Versions: 1 2 3 4 5 6 7 8 9 10 11 12 13 14 15 16 17 18 19 20
000
FTUS44 KLCH 211300 AAA
TAFAEX
TAF AMD
KAEX 211311Z 2113/2212 00000KT P6SM SKC
     FM211500 VRB03KT P6SM BKN020
     FM211800 11004KT P6SM SCT035 BKN080
     FM220900 16004KT 4SM BR BKN012=

USA.gov is the U.S. government's official web portal to all federal, state and local government web resources and services.